Time;durP1;ratioP1;P1;durP2;ratioP2;P2;SDS_P1;SDS_P2;PMS_P1;PMS_P2;Temp;Humidity;BMP_temperature;BMP_pressure;BME280_temperature;BME280_humidity;BME280_pressure;Samples;Min_cycle;Max_cycle;Signal;HPM_P1;HPM_P2
2022/09/08 00:00:23;;;;;;;3.93;3.60;;;18.10;99.90;;;;;;4983677;28;20531;-50
2022/09/08 00:02:50;;;;;;;7.53;2.93;;;18.10;99.90;;;;;;4986238;28;20461;-49
2022/09/08 00:05:20;;;;;;;18.30;4.00;;;18.10;99.90;;;;;;4987666;28;20449;-49
2022/09/08 00:07:49;;;;;;;13.43;3.40;;;18.10;99.90;;;;;;4987035;28;20508;-50
2022/09/08 00:10:15;;;;;;;7.13;3.57;;;18.10;99.90;;;;;;4985409;28;20477;-50
2022/09/08 00:12:42;;;;;;;6.00;3.50;;;18.00;99.90;;;;;;4985921;28;20461;-48
2022/09/08 00:15:10;;;;;;;7.13;3.90;;;18.00;99.90;;;;;;4986096;28;20477;-50
2022/09/08 00:17:37;;;;;;;11.47;3.23;;;18.00;99.90;;;;;;4986505;28;20852;-49
2022/09/08 00:20:04;;;;;;;11.77;3.93;;;18.00;99.90;;;;;;4987178;28;20499;-50
2022/09/08 00:22:31;;;;;;;9.30;3.93;;;17.90;99.90;;;;;;4984078;28;20472;-49
2022/09/08 00:24:59;;;;;;;14.53;4.07;;;17.90;99.90;;;;;;4986535;28;20453;-50
2022/09/08 00:27:26;;;;;;;6.33;3.50;;;17.90;99.90;;;;;;4984525;28;20513;-49
2022/09/08 00:29:52;;;;;;;3.53;3.03;;;17.90;99.90;;;;;;4991818;28;21024;-50
2022/09/08 00:32:19;;;;;;;4.40;3.07;;;17.80;99.90;;;;;;4986293;28;20511;-49
2022/09/08 00:34:46;;;;;;;2.90;2.70;;;17.80;99.90;;;;;;4987196;28;20508;-50
2022/09/08 00:37:14;;;;;;;16.03;3.80;;;17.80;99.90;;;;;;4987049;28;20461;-49
2022/09/08 00:39:41;;;;;;;4.63;3.77;;;17.80;99.90;;;;;;4984205;28;20486;-50
2022/09/08 00:42:09;;;;;;;10.77;3.20;;;17.70;99.90;;;;;;4988958;28;20493;-49
2022/09/08 00:44:40;;;;;;;7.43;3.23;;;17.70;99.90;;;;;;4980127;28;20843;-50
2022/09/08 00:47:14;;;;;;;12.50;3.83;;;17.70;99.90;;;;;;4983924;28;20461;-49
2022/09/08 00:49:42;;;;;;;4.53;3.23;;;17.70;99.90;;;;;;4984099;28;20464;-49
2022/09/08 00:52:08;;;;;;;4.17;2.83;;;17.70;99.90;;;;;;4991164;28;20466;-49
2022/09/08 00:54:36;;;;;;;8.87;3.60;;;17.60;99.90;;;;;;4984825;28;20535;-49
2022/09/08 00:57:04;;;;;;;5.67;3.27;;;17.60;99.90;;;;;;4985243;28;20504;-49
2022/09/08 00:59:36;;;;;;;4.50;3.53;;;17.50;99.90;;;;;;4986096;28;21214;-50
2022/09/08 01:02:23;;;;;;;6.43;3.20;;;17.50;99.90;;;;;;4981533;28;20511;-50
2022/09/08 01:04:53;;;;;;;3.50;3.03;;;17.50;99.90;;;;;;4985715;28;20465;-49
2022/09/08 01:13:07;;;;;;;8.87;3.37;;;17.40;99.90;;;;;;4983190;28;20925;-49
2022/09/08 01:15:36;;;;;;;9.67;3.50;;;17.30;99.90;;;;;;4982505;28;20516;-50
2022/09/08 01:18:03;;;;;;;7.93;3.40;;;17.20;99.90;;;;;;4988223;28;20467;-51
2022/09/08 01:20:41;;;;;;;7.70;2.80;;;17.20;99.90;;;;;;4984952;28;21058;-50
2022/09/08 01:23:53;;;;;;;11.83;3.90;;;17.10;99.90;;;;;;4986311;28;20456;-49
2022/09/08 01:26:50;;;;;;;5.73;3.43;;;17.00;99.90;;;;;;4979422;28;20456;-50
2022/09/08 01:29:21;;;;;;;6.30;3.80;;;17.00;99.90;;;;;;4983078;28;20904;-49
2022/09/08 01:31:50;;;;;;;4.33;3.10;;;16.90;99.90;;;;;;4984313;28;20922;-49
2022/09/08 01:34:17;;;;;;;8.20;3.57;;;16.90;99.90;;;;;;4981543;28;20461;-49
2022/09/08 01:36:43;;;;;;;11.33;3.30;;;16.80;99.90;;;;;;4987224;28;20465;-49
2022/09/08 01:39:10;;;;;;;7.87;5.00;;;16.70;99.90;;;;;;4985714;28;20465;-48
2022/09/08 01:41:36;;;;;;;4.60;3.13;;;16.70;99.90;;;;;;4983890;28;20500;-49
2022/09/08 01:44:03;;;;;;;8.80;3.20;;;16.70;99.90;;;;;;4988609;28;20515;-49
2022/09/08 01:46:31;;;;;;;5.77;3.00;;;16.60;99.90;;;;;;4982001;28;20515;-49
2022/09/08 01:48:58;;;;;;;13.23;3.63;;;16.50;99.90;;;;;;4983273;28;20543;-50
2022/09/08 01:51:25;;;;;;;6.00;3.10;;;16.50;99.90;;;;;;4987118;28;20480;-50
2022/09/08 01:53:52;;;;;;;4.80;2.77;;;16.50;99.90;;;;;;4985163;28;20808;-50
2022/09/08 01:56:19;;;;;;;2.90;2.60;;;16.50;99.90;;;;;;4986396;28;20927;-49
2022/09/08 01:58:46;;;;;;;3.30;2.60;;;16.50;99.90;;;;;;4985605;28;20472;-50
2022/09/08 02:01:13;;;;;;;4.87;3.13;;;16.40;99.90;;;;;;4984547;28;20530;-49
2022/09/08 02:03:41;;;;;;;5.97;2.43;;;16.40;99.90;;;;;;4981206;28;20491;-50
2022/09/08 02:06:09;;;;;;;6.83;3.20;;;16.40;99.90;;;;;;4988737;28;20464;-49
2022/09/08 02:08:36;;;;;;;3.37;3.03;;;16.40;99.90;;;;;;4985090;28;20555;-49
2022/09/08 02:11:03;;;;;;;3.23;2.83;;;16.30;99.90;;;;;;4993915;28;20486;-49
2022/09/08 02:13:30;;;;;;;4.37;3.67;;;16.30;99.90;;;;;;4984859;28;20493;-49
2022/09/08 02:16:01;;;;;;;11.03;3.00;;;16.20;99.90;;;;;;4984893;28;20504;-50
2022/09/08 02:18:30;;;;;;;4.97;2.90;;;16.20;99.90;;;;;;4986851;28;20516;-50
2022/09/08 02:21:10;;;;;;;8.70;2.93;;;16.20;99.90;;;;;;4981380;28;20483;-49
2022/09/08 02:23:39;;;;;;;6.13;2.80;;;16.30;99.90;;;;;;4982948;28;21147;-49
2022/09/08 02:26:07;;;;;;;4.70;3.13;;;16.20;99.90;;;;;;4985792;28;20453;-50
2022/09/08 02:28:34;;;;;;;12.70;3.83;;;16.20;99.90;;;;;;4986843;28;20511;-50
2022/09/08 02:31:01;;;;;;;6.37;3.37;;;16.30;99.90;;;;;;4983892;28;20534;-49
2022/09/08 02:33:29;;;;;;;5.63;2.70;;;16.20;99.90;;;;;;4986898;28;20942;-49
2022/09/08 02:35:56;;;;;;;8.37;2.90;;;16.20;99.90;;;;;;4985280;28;20484;-50
2022/09/08 02:38:25;;;;;;;16.50;3.47;;;16.20;99.90;;;;;;4987809;28;20473;-50
2022/09/08 02:40:52;;;;;;;10.27;3.03;;;16.20;99.90;;;;;;4987844;28;20550;-49
2022/09/08 02:43:20;;;;;;;18.43;3.13;;;16.20;99.90;;;;;;4985590;28;20464;-49
2022/09/08 02:45:47;;;;;;;11.50;3.00;;;16.20;99.90;;;;;;4990377;28;20457;-49
2022/09/08 02:48:14;;;;;;;11.20;3.50;;;16.30;99.90;;;;;;4991290;28;20465;-51
2022/09/08 02:50:41;;;;;;;9.50;2.73;;;16.30;99.90;;;;;;4990338;28;20480;-50
2022/09/08 02:53:07;;;;;;;16.50;3.20;;;16.30;99.90;;;;;;4989834;28;20950;-49
2022/09/08 02:55:38;;;;;;;4.67;2.77;;;16.30;99.90;;;;;;4985174;28;20516;-50
2022/09/08 02:58:07;;;;;;;5.57;3.07;;;16.30;99.90;;;;;;4990344;28;20469;-49
2022/09/08 03:00:34;;;;;;;4.07;3.20;;;16.30;99.90;;;;;;4987584;28;20495;-49
2022/09/08 03:03:00;;;;;;;13.13;3.00;;;16.30;99.90;;;;;;4988040;28;20880;-51
2022/09/08 03:05:28;;;;;;;4.50;2.43;;;16.20;99.90;;;;;;4986766;28;20460;-49
2022/09/08 03:07:54;;;;;;;4.40;2.50;;;16.30;99.90;;;;;;4989873;28;20495;-49
2022/09/08 03:10:23;;;;;;;5.47;2.60;;;16.20;99.90;;;;;;4983567;28;20617;-50
2022/09/08 03:12:52;;;;;;;11.97;2.90;;;16.20;99.90;;;;;;4987957;28;20515;-49
2022/09/08 03:15:19;;;;;;;9.00;3.00;;;16.20;99.90;;;;;;4987732;28;20489;-49
2022/09/08 03:17:46;;;;;;;3.60;3.10;;;16.20;99.90;;;;;;4991892;28;20871;-51
2022/09/08 03:20:13;;;;;;;4.10;2.87;;;16.20;99.90;;;;;;4988215;28;20547;-49
2022/09/08 03:22:39;;;;;;;7.87;2.90;;;16.20;99.90;;;;;;4984415;28;20465;-49
2022/09/08 03:25:07;;;;;;;4.30;3.00;;;16.20;99.90;;;;;;4989930;28;20523;-49
2022/09/08 03:27:34;;;;;;;9.00;3.30;;;16.20;99.90;;;;;;4987052;28;20465;-50
2022/09/08 03:30:02;;;;;;;7.23;3.00;;;16.10;99.90;;;;;;4990178;28;20464;-50
2022/09/08 03:32:28;;;;;;;8.67;2.90;;;16.20;99.90;;;;;;4989430;28;20527;-49
2022/09/08 03:34:55;;;;;;;12.73;2.90;;;16.10;99.90;;;;;;4987539;28;20468;-49
2022/09/08 03:37:21;;;;;;;4.87;2.70;;;16.10;99.90;;;;;;4987441;28;20464;-49
2022/09/08 03:39:48;;;;;;;10.57;3.07;;;16.10;99.90;;;;;;4988573;28;20473;-50
2022/09/08 03:42:17;;;;;;;3.00;2.70;;;16.10;99.90;;;;;;4985097;28;20464;-49
2022/09/08 03:44:44;;;;;;;4.03;3.20;;;16.10;99.90;;;;;;4985646;28;20471;-55
2022/09/08 03:47:12;;;;;;;4.67;3.47;;;16.10;99.90;;;;;;4990354;28;20876;-55
2022/09/08 03:49:39;;;;;;;14.17;3.63;;;16.00;99.90;;;;;;4987898;28;21021;-55
2022/09/08 03:52:07;;;;;;;13.03;3.93;;;16.00;99.90;;;;;;4988279;28;20543;-55
2022/09/08 03:54:50;;;;;;;3.47;2.97;;;15.90;99.90;;;;;;4989595;28;20492;-55
2022/09/08 03:57:19;;;;;;;8.43;3.10;;;16.00;99.90;;;;;;4984003;28;20493;-55
2022/09/08 03:59:45;;;;;;;6.60;2.67;;;15.90;99.90;;;;;;4989027;28;20986;-55
2022/09/08 04:02:14;;;;;;;5.00;3.37;;;15.90;99.90;;;;;;4985475;28;20460;-56
2022/09/08 04:04:41;;;;;;;4.77;3.00;;;15.90;99.90;;;;;;4988615;28;20519;-55
2022/09/08 04:07:09;;;;;;;3.90;3.50;;;15.90;99.90;;;;;;4985429;28;20457;-55
2022/09/08 04:09:36;;;;;;;6.33;3.17;;;15.80;99.90;;;;;;4988621;28;20472;-55
2022/09/08 04:12:03;;;;;;;9.10;4.13;;;15.80;99.90;;;;;;4987170;28;20485;-55
2022/09/08 04:14:30;;;;;;;8.83;3.27;;;15.70;99.90;;;;;;4985270;28;20461;-55
2022/09/08 04:16:57;;;;;;;7.07;3.50;;;15.70;99.90;;;;;;4984068;28;20488;-55
2022/09/08 04:19:25;;;;;;;8.10;3.43;;;15.70;99.90;;;;;;4984774;28;20493;-56
2022/09/08 04:21:52;;;;;;;4.10;3.67;;;15.70;99.90;;;;;;4986924;28;20561;-54
2022/09/08 04:24:19;;;;;;;6.93;3.13;;;15.70;99.90;;;;;;4989683;28;20492;-56
2022/09/08 04:26:45;;;;;;;17.63;3.17;;;15.70;99.90;;;;;;4990893;28;20456;-54
2022/09/08 04:29:12;;;;;;;12.47;2.63;;;15.60;99.90;;;;;;4987055;28;20457;-55
2022/09/08 04:31:39;;;;;;;8.23;3.17;;;15.60;99.90;;;;;;4988537;28;22739;-55
2022/09/08 04:34:05;;;;;;;6.67;3.40;;;15.60;99.90;;;;;;4982473;28;20499;-55
2022/09/08 04:36:34;;;;;;;7.20;3.93;;;15.50;99.90;;;;;;4987062;28;20567;-55
2022/09/08 04:39:01;;;;;;;5.20;3.30;;;15.50;99.90;;;;;;4988800;28;20564;-54
2022/09/08 04:41:30;;;;;;;7.57;3.87;;;15.50;99.90;;;;;;4982877;28;20492;-55
2022/09/08 04:44:00;;;;;;;4.60;3.43;;;15.50;99.90;;;;;;4984017;28;20519;-55
2022/09/08 04:46:27;;;;;;;7.73;3.43;;;15.40;99.90;;;;;;4981687;28;20489;-55
2022/09/08 04:48:54;;;;;;;11.73;3.30;;;15.40;99.90;;;;;;4984625;28;20461;-56
2022/09/08 04:51:21;;;;;;;6.83;3.67;;;15.40;99.90;;;;;;4986113;28;20902;-55
2022/09/08 04:53:52;;;;;;;8.77;3.90;;;15.40;99.90;;;;;;4986813;28;20456;-54
2022/09/08 04:56:19;;;;;;;5.93;3.20;;;15.40;99.90;;;;;;4985903;28;20484;-55
2022/09/08 04:58:46;;;;;;;4.90;3.50;;;15.40;99.90;;;;;;4986142;28;20970;-55
2022/09/08 05:01:15;;;;;;;8.20;3.80;;;15.40;99.90;;;;;;4982692;28;20485;-54
2022/09/08 05:03:42;;;;;;;9.40;3.53;;;15.40;99.90;;;;;;4982456;28;20469;-56
2022/09/08 05:06:11;;;;;;;8.13;2.97;;;15.40;99.90;;;;;;4984208;28;20943;-56
2022/09/08 05:08:38;;;;;;;7.07;3.27;;;15.40;99.90;;;;;;4984556;28;20469;-55
2022/09/08 05:11:06;;;;;;;3.77;2.80;;;15.40;99.90;;;;;;4985322;28;20484;-55
2022/09/08 05:13:33;;;;;;;21.17;3.47;;;15.40;99.90;;;;;;4987123;28;20810;-55
2022/09/08 05:16:04;;;;;;;10.63;4.70;;;15.40;99.90;;;;;;4985400;28;20485;-55
2022/09/08 05:18:31;;;;;;;12.53;3.63;;;15.40;99.90;;;;;;4986766;28;20500;-56
2022/09/08 05:20:58;;;;;;;8.07;3.00;;;15.40;99.90;;;;;;4986756;28;20832;-55
2022/09/08 05:23:25;;;;;;;9.93;3.70;;;15.40;99.90;;;;;;4982505;28;20526;-56
2022/09/08 05:25:56;;;;;;;3.30;2.70;;;15.40;99.90;;;;;;4983712;28;20483;-55
2022/09/08 05:28:26;;;;;;;6.93;3.73;;;15.40;99.90;;;;;;4988469;28;20468;-55
2022/09/08 05:30:53;;;;;;;14.43;3.60;;;15.40;99.90;;;;;;4986233;28;20484;-54
2022/09/08 05:33:20;;;;;;;6.10;3.13;;;15.40;99.90;;;;;;4984104;28;20453;-55
2022/09/08 05:35:47;;;;;;;3.47;3.17;;;15.40;99.90;;;;;;4988856;28;20466;-55
2022/09/08 05:38:14;;;;;;;5.17;2.67;;;15.40;99.90;;;;;;4988399;28;20457;-55
2022/09/08 05:43:15;;;;;;;5.03;2.70;;;15.40;99.90;;;;;;4989708;28;20504;-50
2022/09/08 05:45:45;;;;;;;4.90;3.10;;;15.40;99.90;;;;;;4991120;28;20465;-50
2022/09/08 05:48:12;;;;;;;8.20;3.93;;;15.40;99.90;;;;;;4988854;28;20535;-51
2022/09/08 05:50:41;;;;;;;8.40;3.70;;;15.40;99.90;;;;;;4985130;28;20457;-52
2022/09/08 05:53:08;;;;;;;8.73;3.80;;;15.40;99.90;;;;;;4986060;28;20634;-52
2022/09/08 05:55:35;;;;;;;5.33;3.20;;;15.40;99.90;;;;;;4991286;28;20469;-52
2022/09/08 05:58:01;;;;;;;10.30;3.43;;;15.40;99.90;;;;;;4986756;28;20567;-52
2022/09/08 06:00:28;;;;;;;7.13;4.00;;;15.40;99.90;;;;;;4992445;28;20489;-52
2022/09/08 06:02:56;;;;;;;14.27;3.47;;;15.50;99.90;;;;;;4986826;28;20489;-52
2022/09/08 06:05:24;;;;;;;6.27;2.97;;;15.50;99.90;;;;;;4989815;28;20543;-52
2022/09/08 06:07:50;;;;;;;6.80;4.10;;;15.50;99.90;;;;;;4989151;28;20457;-51
2022/09/08 06:10:18;;;;;;;7.60;3.83;;;15.50;99.90;;;;;;4996876;28;20491;-52
2022/09/08 06:12:44;;;;;;;8.23;3.10;;;15.50;99.90;;;;;;4999255;28;20480;-52
2022/09/08 06:15:12;;;;;;;14.50;3.80;;;15.50;99.90;;;;;;4985907;28;20851;-53
2022/09/08 06:17:39;;;;;;;7.00;3.23;;;15.50;99.90;;;;;;4998045;28;20575;-52
2022/09/08 06:20:08;;;;;;;4.13;3.30;;;15.50;99.90;;;;;;4990480;28;20973;-52
2022/09/08 06:22:35;;;;;;;15.00;3.77;;;15.50;99.90;;;;;;4988175;28;20485;-52
2022/09/08 06:25:02;;;;;;;7.57;3.30;;;15.60;99.90;;;;;;4992393;28;20521;-52
2022/09/08 06:27:39;;;;;;;13.67;3.67;;;15.50;99.90;;;;;;4997886;28;20954;-52
2022/09/08 06:30:10;;;;;;;5.67;3.60;;;15.50;99.90;;;;;;4992747;28;20467;-51
2022/09/08 06:32:41;;;;;;;14.97;3.60;;;15.50;99.90;;;;;;4994661;28;20942;-52
2022/09/08 06:35:14;;;;;;;6.67;3.50;;;15.60;99.90;;;;;;4988495;28;20497;-52
2022/09/08 06:37:47;;;;;;;9.40;3.70;;;15.60;99.90;;;;;;4995279;28;20491;-52
2022/09/08 06:40:20;;;;;;;4.90;3.60;;;15.60;99.90;;;;;;4990756;28;20841;-52
2022/09/08 06:42:52;;;;;;;4.50;3.70;;;15.60;99.90;;;;;;4990446;28;20558;-52
2022/09/08 06:45:23;;;;;;;7.10;3.80;;;15.60;99.90;;;;;;4995409;28;20492;-51
2022/09/08 06:48:11;;;;;;;5.33;3.83;;;15.60;99.90;;;;;;4990147;28;20456;-51
2022/09/08 06:50:45;;;;;;;21.43;4.40;;;15.60;99.90;;;;;;4965859;28;20554;-51
2022/09/08 06:53:19;;;;;;;27.37;4.33;;;15.70;99.90;;;;;;4979425;28;20492;-51
2022/09/08 06:55:52;;;;;;;6.70;3.90;;;15.70;99.90;;;;;;4987657;28;20519;-51
2022/09/08 06:58:28;;;;;;;5.57;3.77;;;15.80;99.90;;;;;;4991528;28;20473;-51
2022/09/08 07:01:00;;;;;;;5.07;3.70;;;15.70;99.90;;;;;;4993097;28;20891;-51
2022/09/08 07:03:39;;;;;;;5.17;3.83;;;15.70;99.90;;;;;;4990185;28;20454;-52
2022/09/08 07:06:08;;;;;;;8.50;3.93;;;15.80;99.90;;;;;;4989519;28;20452;-51
2022/09/08 07:08:45;;;;;;;11.63;4.07;;;15.80;99.90;;;;;;4988491;28;20558;-51
2022/09/08 07:11:24;;;;;;;11.50;4.20;;;15.80;99.90;;;;;;4987393;28;20479;-52
2022/09/08 07:13:58;;;;;;;12.00;4.47;;;15.80;99.90;;;;;;4989595;28;20464;-52
2022/09/08 07:16:30;;;;;;;6.13;4.17;;;15.90;99.90;;;;;;4993800;28;20595;-53
2022/09/08 07:19:02;;;;;;;8.63;5.40;;;15.90;99.90;;;;;;4984525;28;20513;-52
2022/09/08 07:21:38;;;;;;;15.70;4.27;;;16.00;99.90;;;;;;4992723;28;20487;-52
2022/09/08 07:24:11;;;;;;;17.93;5.27;;;16.00;99.90;;;;;;4988690;28;20547;-51
2022/09/08 07:26:46;;;;;;;8.87;4.50;;;16.10;99.90;;;;;;4992709;28;21353;-51
2022/09/08 07:29:19;;;;;;;7.70;3.90;;;16.10;99.90;;;;;;4987829;28;20495;-51
2022/09/08 07:31:50;;;;;;;8.40;4.20;;;16.20;99.90;;;;;;4988035;28;20511;-51
2022/09/08 07:34:21;;;;;;;10.93;4.67;;;16.30;99.90;;;;;;4987862;28;20465;-51
2022/09/08 07:37:01;;;;;;;7.60;4.70;;;16.40;99.90;;;;;;4985495;28;20517;-51
2022/09/08 07:39:36;;;;;;;10.63;4.93;;;16.40;99.90;;;;;;4996975;28;20457;-52
2022/09/08 07:42:06;;;;;;;15.20;4.40;;;16.50;99.90;;;;;;4989052;28;20582;-51
2022/09/08 07:44:34;;;;;;;12.03;5.10;;;16.70;99.90;;;;;;4990967;28;20519;-51
2022/09/08 07:47:36;;;;;;;7.10;4.20;;;16.70;99.90;;;;;;4992662;28;20511;-51
2022/09/08 07:50:12;;;;;;;14.10;4.40;;;16.80;99.90;;;;;;4990604;28;20479;-53
2022/09/08 07:52:51;;;;;;;9.57;4.47;;;17.00;99.90;;;;;;4991713;28;20898;-50
2022/09/08 07:55:26;;;;;;;7.13;4.57;;;17.10;99.90;;;;;;4992747;28;20469;-51
2022/09/08 07:58:02;;;;;;;12.10;4.83;;;17.20;99.90;;;;;;4990583;28;20508;-51
2022/09/08 08:00:43;;;;;;;10.67;4.80;;;17.20;99.90;;;;;;4988211;28;20907;-51
2022/09/08 08:03:33;;;;;;;7.60;4.20;;;17.20;99.90;;;;;;4985718;28;20457;-51
2022/09/08 08:06:05;;;;;;;9.63;4.30;;;17.30;99.90;;;;;;4987688;28;20568;-51
2022/09/08 08:08:44;;;;;;;11.00;4.50;;;17.30;99.90;;;;;;4988436;28;20550;-52
2022/09/08 08:11:20;;;;;;;9.60;4.83;;;17.40;99.90;;;;;;4990930;28;20480;-51
2022/09/08 08:14:06;;;;;;;14.47;5.03;;;17.40;99.90;;;;;;4989154;28;20484;-52
2022/09/08 08:16:48;;;;;;;5.83;4.63;;;17.40;99.90;;;;;;4989599;28;20523;-51
2022/09/08 08:19:30;;;;;;;8.83;4.20;;;17.40;99.90;;;;;;4986866;28;20484;-52
2022/09/08 08:22:05;;;;;;;16.40;4.73;;;17.40;99.90;;;;;;4994682;28;20549;-51
2022/09/08 08:24:39;;;;;;;10.03;5.40;;;17.40;99.90;;;;;;4989593;28;21172;-51
2022/09/08 08:27:14;;;;;;;12.70;4.73;;;17.50;99.90;;;;;;4988786;28;20482;-51
2022/09/08 08:29:58;;;;;;;14.77;4.63;;;17.50;99.90;;;;;;4988325;28;20488;-51
2022/09/08 08:32:28;;;;;;;14.13;5.43;;;17.60;99.90;;;;;;4989642;28;20878;-52
2022/09/08 08:35:00;;;;;;;16.47;4.50;;;17.50;99.90;;;;;;4989810;28;20497;-53
2022/09/08 08:37:31;;;;;;;11.20;4.90;;;17.60;99.90;;;;;;4985913;28;20500;-52
2022/09/08 08:40:01;;;;;;;8.90;4.77;;;17.60;99.90;;;;;;4986466;28;20562;-51
2022/09/08 08:42:40;;;;;;;13.80;5.67;;;17.60;99.90;;;;;;4993238;28;20519;-51
2022/09/08 08:45:18;;;;;;;9.40;4.70;;;17.60;99.90;;;;;;4984436;28;20527;-51
2022/09/08 08:48:08;;;;;;;6.53;4.77;;;17.60;99.90;;;;;;4982259;28;20563;-51
2022/09/08 08:51:16;;;;;;;9.83;4.87;;;17.70;99.90;;;;;;4989332;28;20500;-51
2022/09/08 08:54:18;;;;;;;13.60;4.80;;;17.70;99.90;;;;;;4985605;28;21890;-51
2022/09/08 08:56:56;;;;;;;11.50;5.20;;;17.70;99.90;;;;;;4967313;28;20547;-52
2022/09/08 09:00:01;;;;;;;10.10;5.00;;;17.70;99.90;;;;;;4980029;28;20519;-52
2022/09/08 09:02:47;;;;;;;9.70;5.60;;;17.70;99.90;;;;;;4987393;28;20487;-53
2022/09/08 09:05:40;;;;;;;15.93;5.57;;;17.80;99.90;;;;;;4984048;28;20485;-52
2022/09/08 09:08:43;;;;;;;9.13;5.00;;;17.80;99.90;;;;;;4982622;28;20568;-52
2022/09/08 09:11:26;;;;;;;11.90;5.10;;;17.80;99.90;;;;;;4980472;28;20872;-53
2022/09/08 09:14:20;;;;;;;7.93;5.07;;;17.80;99.90;;;;;;4982643;28;20542;-52
2022/09/08 09:17:04;;;;;;;7.23;4.93;;;17.80;94.80;;;;;;4986439;28;20488;-52
2022/09/08 09:20:08;;;;;;;9.10;5.60;;;17.80;92.30;;;;;;4984423;28;20469;-52
2022/09/08 09:22:43;;;;;;;10.20;5.20;;;17.70;87.50;;;;;;4935541;29;20989;-52
2022/09/08 09:25:20;;;;;;;8.97;5.50;;;17.70;70.50;;;;;;4975101;28;20948;-52
2022/09/08 09:27:55;;;;;;;17.03;5.50;;;17.60;24.30;;;;;;4982486;28;20460;-52
2022/09/08 09:30:25;;;;;;;22.93;5.83;;;17.50;20.70;;;;;;4984257;28;21872;-52
2022/09/08 09:33:15;;;;;;;15.20;5.90;;;17.30;99.90;;;;;;4995378;28;20488;-52
2022/09/08 09:36:14;;;;;;;13.63;4.90;;;17.20;99.90;;;;;;4986775;28;20492;-52
2022/09/08 09:39:08;;;;;;;11.60;5.40;;;17.20;99.90;;;;;;4985809;28;20570;-53
2022/09/08 09:41:50;;;;;;;12.37;5.70;;;17.10;99.90;;;;;;4995437;28;20551;-52
2022/09/08 09:44:58;;;;;;;12.17;6.30;;;17.00;99.90;;;;;;4988298;28;21098;-52
2022/09/08 09:47:56;;;;;;;15.40;8.10;;;16.90;99.90;;;;;;4971976;28;20590;-52
2022/09/08 09:50:53;;;;;;;8.70;5.80;;;16.90;99.90;;;;;;4990641;28;20966;-51
2022/09/08 09:53:45;;;;;;;8.27;5.90;;;16.90;99.90;;;;;;4986679;28;20465;-52
2022/09/08 09:56:48;;;;;;;11.53;5.40;;;16.90;99.90;;;;;;4987499;28;20484;-51
2022/09/08 09:59:44;;;;;;;11.30;6.33;;;16.80;99.90;;;;;;4994998;28;20515;-52
2022/09/08 10:02:42;;;;;;;20.50;5.90;;;16.80;99.90;;;;;;4986545;28;20902;-51
2022/09/08 10:05:44;;;;;;;12.07;6.57;;;16.80;99.90;;;;;;4997162;28;20491;-52
2022/09/08 10:08:59;;;;;;;10.20;7.27;;;16.80;99.90;;;;;;4990066;28;20458;-51
2022/09/08 10:11:49;;;;;;;7.60;5.70;;;16.80;97.90;;;;;;4990038;28;20978;-53
2022/09/08 10:14:59;;;;;;;17.50;6.77;;;16.80;78.30;;;;;;4994945;28;20487;-52
2022/09/08 10:18:00;;;;;;;15.10;6.00;;;16.70;66.70;;;;;;4993027;28;20480;-52
2022/09/08 10:20:46;;;;;;;13.23;6.70;;;16.80;39.40;;;;;;4988529;28;20540;-52
2022/09/08 10:24:01;;;;;;;12.07;6.83;;;16.70;36.90;;;;;;4988650;28;20495;-51
2022/09/08 10:26:51;;;;;;;11.73;6.27;;;16.70;36.30;;;;;;4977330;28;20542;-52
2022/09/08 10:29:43;;;;;;;9.70;6.80;;;16.70;29.00;;;;;;4995803;28;20525;-51
2022/09/08 10:32:38;;;;;;;17.63;6.50;;;16.70;99.90;;;;;;4988947;28;20551;-51
2022/09/08 10:35:19;;;;;;;8.77;6.07;;;16.70;99.90;;;;;;4969950;28;20518;-52
2022/09/08 10:38:17;;;;;;;6.87;6.10;;;16.60;99.90;;;;;;4992079;28;21012;-52
2022/09/08 10:41:09;;;;;;;8.40;6.27;;;16.60;99.90;;;;;;4994870;28;20468;-52
2022/09/08 10:44:07;;;;;;;12.93;7.43;;;16.60;99.90;;;;;;4991364;28;20496;-51
2022/09/08 10:46:58;;;;;;;10.03;7.10;;;16.50;99.90;;;;;;4992061;28;20463;-52
2022/09/08 10:50:02;;;;;;;12.13;7.37;;;16.50;99.90;;;;;;4992392;28;20968;-52
2022/09/08 10:52:32;;;;;;;17.50;7.80;;;16.50;99.90;;;;;;4995483;28;20502;-52
2022/09/08 10:55:54;;;;;;;12.07;8.60;;;16.60;99.90;;;;;;4993283;28;20522;-52
2022/09/08 10:58:56;;;;;;;17.50;8.30;;;16.50;99.90;;;;;;4993397;28;20535;-52
2022/09/08 11:01:39;;;;;;;14.20;8.27;;;16.50;99.90;;;;;;4990117;28;20542;-51
2022/09/08 11:04:38;;;;;;;16.40;9.23;;;16.40;99.90;;;;;;4994588;28;20470;-52
2022/09/08 11:07:22;;;;;;;15.57;8.73;;;16.30;99.90;;;;;;4990579;28;20889;-51
2022/09/08 11:09:58;;;;;;;13.70;8.70;;;16.20;99.90;;;;;;4987868;28;20465;-50
2022/09/08 11:12:41;;;;;;;17.57;9.37;;;16.10;99.90;;;;;;4990556;28;20481;-51
2022/09/08 11:15:30;;;;;;;14.30;9.00;;;15.90;99.90;;;;;;4992463;28;20550;-51
2022/09/08 11:18:14;;;;;;;16.90;9.70;;;15.80;99.90;;;;;;4983381;28;20512;-51
2022/09/08 11:20:47;;;;;;;14.40;9.80;;;15.70;99.90;;;;;;4989791;28;20519;-51
2022/09/08 11:23:25;;;;;;;21.40;9.90;;;15.70;79.30;;;;;;4991984;28;20473;-52
2022/09/08 11:26:08;;;;;;;22.27;9.57;;;15.70;58.20;;;;;;4993044;28;20467;-52
2022/09/08 11:28:53;;;;;;;13.37;9.33;;;15.70;36.10;;;;;;4993087;28;20461;-50
2022/09/08 11:31:32;;;;;;;10.87;9.67;;;15.80;27.70;;;;;;4989787;28;20473;-52
2022/09/08 11:34:21;;;;;;;15.50;9.90;;;15.80;25.20;;;;;;4992451;28;20457;-51
2022/09/08 11:37:34;;;;;;;16.13;10.40;;;15.70;79.60;;;;;;4994644;28;20492;-52
2022/09/08 11:40:35;;;;;;;13.53;9.87;;;15.70;99.90;;;;;;4994029;28;20444;-53
2022/09/08 11:43:18;;;;;;;16.10;9.77;;;15.70;99.90;;;;;;4989653;28;20492;-51
2022/09/08 11:45:57;;;;;;;14.87;9.50;;;15.80;99.90;;;;;;4994993;28;20492;-52
2022/09/08 11:49:04;;;;;;;19.40;10.30;;;15.80;99.90;;;;;;4987874;28;20860;-51
2022/09/08 11:51:43;;;;;;;14.30;10.90;;;15.90;99.90;;;;;;4985355;28;20538;-52
2022/09/08 11:54:32;;;;;;;16.07;10.17;;;15.90;99.90;;;;;;4991801;28;20496;-52
2022/09/08 11:57:21;;;;;;;18.57;11.30;;;15.90;99.90;;;;;;4992533;28;20468;-52
2022/09/08 12:00:10;;;;;;;14.93;9.47;;;15.90;99.90;;;;;;4986390;28;20483;-52
2022/09/08 12:03:07;;;;;;;25.03;10.27;;;15.90;99.90;;;;;;4992050;28;20496;-51
2022/09/08 12:05:49;;;;;;;16.10;10.07;;;15.90;99.90;;;;;;4990508;28;20464;-49
2022/09/08 12:08:31;;;;;;;19.53;11.10;;;15.90;99.90;;;;;;4989952;28;20452;-51
2022/09/08 12:11:16;;;;;;;16.13;10.90;;;16.00;99.90;;;;;;4990137;28;20465;-52
2022/09/08 12:13:50;;;;;;;16.70;9.93;;;16.00;99.90;;;;;;4987863;28;20975;-52
2022/09/08 12:16:43;;;;;;;14.27;10.43;;;15.90;99.90;;;;;;4985401;28;20974;-52
2022/09/08 12:19:25;;;;;;;14.57;8.93;;;16.00;99.90;;;;;;4994935;28;20484;-53
2022/09/08 12:22:11;;;;;;;19.60;10.70;;;15.80;99.90;;;;;;4991425;28;20516;-52
2022/09/08 12:24:53;;;;;;;12.57;9.60;;;15.80;99.90;;;;;;4991667;28;20460;-53
2022/09/08 12:27:39;;;;;;;18.17;9.83;;;15.70;99.90;;;;;;4991897;28;20456;-52
2022/09/08 12:30:12;;;;;;;12.83;9.03;;;15.70;99.90;;;;;;4987775;28;20463;-52
2022/09/08 12:33:12;;;;;;;14.03;10.47;;;15.70;99.90;;;;;;4991277;28;20576;-51
2022/09/08 12:35:50;;;;;;;14.60;9.90;;;15.70;99.90;;;;;;4991578;28;20548;-51
2022/09/08 12:38:51;;;;;;;14.53;10.43;;;15.70;99.90;;;;;;4990646;28;20488;-51
2022/09/08 12:41:47;;;;;;;15.23;10.07;;;15.70;99.90;;;;;;4989450;28;20523;-51
2022/09/08 12:44:28;;;;;;;13.57;9.90;;;15.70;99.90;;;;;;4971005;28;21024;-50
2022/09/08 12:47:07;;;;;;;16.93;9.97;;;15.70;99.90;;;;;;4989800;28;20504;-50
2022/09/08 12:50:03;;;;;;;11.57;9.50;;;15.70;99.90;;;;;;4993434;28;20468;-51
2022/09/08 12:52:44;;;;;;;16.67;10.13;;;15.80;99.90;;;;;;4990417;28;20591;-53
2022/09/08 12:55:20;;;;;;;12.33;9.43;;;15.70;99.90;;;;;;4984108;28;20500;-53
2022/09/08 12:57:55;;;;;;;13.67;10.27;;;15.80;99.90;;;;;;4990696;28;20534;-52
2022/09/08 13:00:26;;;;;;;15.00;10.03;;;15.80;99.90;;;;;;4990763;28;20460;-52
2022/09/08 13:03:23;;;;;;;15.83;9.10;;;15.80;99.90;;;;;;4989795;28;21049;-53
2022/09/08 13:06:13;;;;;;;10.67;8.80;;;15.80;99.90;;;;;;4988279;28;20484;-52
2022/09/08 13:08:55;;;;;;;16.60;10.03;;;15.80;99.90;;;;;;4988571;28;20464;-52
2022/09/08 13:11:39;;;;;;;15.60;10.53;;;15.80;99.90;;;;;;4990319;28;21077;-53
2022/09/08 13:14:09;;;;;;;13.47;9.70;;;15.90;99.90;;;;;;4992608;28;20530;-52
2022/09/08 13:16:48;;;;;;;15.47;10.30;;;15.90;99.90;;;;;;4991313;28;20499;-53
2022/09/08 13:19:27;;;;;;;11.07;9.07;;;16.00;99.90;;;;;;4988201;28;20562;-52
2022/09/08 13:22:20;;;;;;;16.87;10.17;;;16.00;99.90;;;;;;4988430;28;20487;-53
2022/09/08 13:24:59;;;;;;;13.63;9.43;;;16.00;99.90;;;;;;4990849;28;20492;-52
2022/09/08 13:27:36;;;;;;;13.23;9.90;;;16.00;99.90;;;;;;4991575;28;20459;-54
2022/09/08 13:30:12;;;;;;;15.83;10.20;;;15.90;99.90;;;;;;4987486;28;20495;-52
2022/09/08 13:33:09;;;;;;;17.30;10.20;;;15.90;99.90;;;;;;4986979;28;21059;-52
2022/09/08 13:35:53;;;;;;;12.97;9.73;;;15.90;99.90;;;;;;4963737;28;20545;-53